sensor_id;sensor_type;location;lat;lon;timestamp;pressure;altitude;pressure_sealevel;temperature;humidity
76195;BME280;64964;48.694;21.206;2023-04-25T00:02:04;96828.91;;;11.57;84.14
76195;BME280;64964;48.694;21.206;2023-04-25T00:04:30;96827.47;;;11.61;83.50
76195;BME280;64964;48.694;21.206;2023-04-25T00:06:59;96831.72;;;11.62;83.61
76195;BME280;64964;48.694;21.206;2023-04-25T00:09:27;96829.50;;;11.65;83.46
76195;BME280;64964;48.694;21.206;2023-04-25T00:11:52;96816.88;;;11.61;84.32
76195;BME280;64964;48.694;21.206;2023-04-25T00:14:18;96819.13;;;11.57;84.12
76195;BME280;64964;48.694;21.206;2023-04-25T00:16:43;96816.28;;;11.59;84.00
76195;BME280;64964;48.694;21.206;2023-04-25T00:19:09;96814.63;;;11.58;83.47
76195;BME280;64964;48.694;21.206;2023-04-25T00:21:34;96814.44;;;11.59;83.45
76195;BME280;64964;48.694;21.206;2023-04-25T00:24:00;96803.03;;;11.59;83.49
76195;BME280;64964;48.694;21.206;2023-04-25T00:26:26;96800.81;;;11.62;83.19
76195;BME280;64964;48.694;21.206;2023-04-25T00:28:52;96798.34;;;11.61;83.65
76195;BME280;64964;48.694;21.206;2023-04-25T00:31:17;96804.44;;;11.61;84.00
76195;BME280;64964;48.694;21.206;2023-04-25T00:33:43;96792.66;;;11.64;83.71
76195;BME280;64964;48.694;21.206;2023-04-25T00:36:08;96793.06;;;11.67;82.79
76195;BME280;64964;48.694;21.206;2023-04-25T00:38:34;96794.09;;;11.66;83.30
76195;BME280;64964;48.694;21.206;2023-04-25T00:41:00;96787.75;;;11.67;83.56
76195;BME280;64964;48.694;21.206;2023-04-25T00:43:30;96779.19;;;11.65;82.93
76195;BME280;64964;48.694;21.206;2023-04-25T00:45:59;96786.34;;;11.58;84.73
76195;BME280;64964;48.694;21.206;2023-04-25T00:48:25;96779.63;;;11.62;84.10
76195;BME280;64964;48.694;21.206;2023-04-25T00:50:55;96791.84;;;11.63;83.69
76195;BME280;64964;48.694;21.206;2023-04-25T00:53:22;96780.00;;;11.66;83.86
76195;BME280;64964;48.694;21.206;2023-04-25T00:55:49;96779.78;;;11.74;82.44
76195;BME280;64964;48.694;21.206;2023-04-25T00:58:16;96781.44;;;11.75;83.54
76195;BME280;64964;48.694;21.206;2023-04-25T01:00:42;96775.72;;;11.78;82.88
76195;BME280;64964;48.694;21.206;2023-04-25T01:03:09;96775.72;;;11.78;82.93
76195;BME280;64964;48.694;21.206;2023-04-25T01:05:35;96773.09;;;11.71;84.03
76195;BME280;64964;48.694;21.206;2023-04-25T01:08:00;96772.91;;;11.60;85.18
76195;BME280;64964;48.694;21.206;2023-04-25T01:10:26;96765.59;;;11.55;85.55
76195;BME280;64964;48.694;21.206;2023-04-25T01:12:51;96763.16;;;11.47;85.57
76195;BME280;64964;48.694;21.206;2023-04-25T01:15:17;96773.72;;;11.60;83.85
76195;BME280;64964;48.694;21.206;2023-04-25T01:17:42;96766.00;;;11.59;84.34
76195;BME280;64964;48.694;21.206;2023-04-25T01:20:10;96768.22;;;11.55;84.93
76195;BME280;64964;48.694;21.206;2023-04-25T01:22:36;96765.78;;;11.54;85.40
76195;BME280;64964;48.694;21.206;2023-04-25T01:25:01;96767.59;;;11.53;85.00
76195;BME280;64964;48.694;21.206;2023-04-25T01:27:27;96764.97;;;11.53;84.81
76195;BME280;64964;48.694;21.206;2023-04-25T01:29:54;96764.59;;;11.50;85.44
76195;BME280;64964;48.694;21.206;2023-04-25T01:32:21;96761.69;;;11.58;83.97
76195;BME280;64964;48.694;21.206;2023-04-25T01:34:46;96758.81;;;11.66;83.46
76195;BME280;64964;48.694;21.206;2023-04-25T01:37:12;96767.41;;;11.75;83.20
76195;BME280;64964;48.694;21.206;2023-04-25T01:39:37;96754.13;;;11.81;82.78
76195;BME280;64964;48.694;21.206;2023-04-25T01:42:02;96758.81;;;11.86;82.84
76195;BME280;64964;48.694;21.206;2023-04-25T01:44:28;96765.13;;;11.91;82.35
76195;BME280;64964;48.694;21.206;2023-04-25T01:46:53;96762.69;;;11.96;82.31
76195;BME280;64964;48.694;21.206;2023-04-25T01:49:19;96748.81;;;12.01;81.92
76195;BME280;64964;48.694;21.206;2023-04-25T01:51:45;96756.13;;;12.06;82.03
76195;BME280;64964;48.694;21.206;2023-04-25T01:54:10;96746.72;;;12.10;81.55
76195;BME280;64964;48.694;21.206;2023-04-25T01:56:37;96753.47;;;12.12;81.54
76195;BME280;64964;48.694;21.206;2023-04-25T01:59:04;96751.19;;;12.16;81.24
76195;BME280;64964;48.694;21.206;2023-04-25T02:01:29;96750.81;;;12.12;81.89
76195;BME280;64964;48.694;21.206;2023-04-25T02:03:55;96749.78;;;12.07;82.45
76195;BME280;64964;48.694;21.206;2023-04-25T02:06:20;96757.38;;;11.96;82.83
76195;BME280;64964;48.694;21.206;2023-04-25T02:08:46;96745.97;;;11.96;81.85
76195;BME280;64964;48.694;21.206;2023-04-25T02:11:11;96746.78;;;11.96;81.72
76195;BME280;64964;48.694;21.206;2023-04-25T02:13:36;96744.72;;;11.99;81.25
76195;BME280;64964;48.694;21.206;2023-04-25T02:16:02;96743.28;;;12.03;81.33
76195;BME280;64964;48.694;21.206;2023-04-25T02:18:27;96734.13;;;12.05;80.98
76195;BME280;64964;48.694;21.206;2023-04-25T02:20:53;96729.41;;;12.07;81.16
76195;BME280;64964;48.694;21.206;2023-04-25T02:23:18;96731.44;;;12.12;81.06
76195;BME280;64964;48.694;21.206;2023-04-25T02:25:44;96733.66;;;12.15;80.75
76195;BME280;64964;48.694;21.206;2023-04-25T02:28:10;96729.16;;;12.15;80.97
76195;BME280;64964;48.694;21.206;2023-04-25T02:30:36;96729.81;;;12.11;81.46
76195;BME280;64964;48.694;21.206;2023-04-25T02:33:01;96725.31;;;12.11;81.09
76195;BME280;64964;48.694;21.206;2023-04-25T02:35:27;96726.97;;;12.12;81.05
76195;BME280;64964;48.694;21.206;2023-04-25T02:37:52;96724.69;;;12.16;80.85
76195;BME280;64964;48.694;21.206;2023-04-25T02:40:18;96723.69;;;12.17;80.73
76195;BME280;64964;48.694;21.206;2023-04-25T02:42:43;96728.53;;;12.20;80.69
76195;BME280;64964;48.694;21.206;2023-04-25T02:45:11;96721.41;;;12.20;80.77
76195;BME280;64964;48.694;21.206;2023-04-25T02:47:36;96718.56;;;12.22;80.74
76195;BME280;64964;48.694;21.206;2023-04-25T02:50:03;96722.00;;;12.23;80.72
76195;BME280;64964;48.694;21.206;2023-04-25T02:52:28;96717.53;;;12.23;80.79
76195;BME280;64964;48.694;21.206;2023-04-25T02:54:53;96722.81;;;12.23;80.66
76195;BME280;64964;48.694;21.206;2023-04-25T02:57:19;96724.44;;;12.24;80.55
76195;BME280;64964;48.694;21.206;2023-04-25T02:59:44;96723.44;;;12.25;80.69
76195;BME280;64964;48.694;21.206;2023-04-25T03:02:10;96726.91;;;12.26;80.52
76195;BME280;64964;48.694;21.206;2023-04-25T03:04:35;96714.47;;;12.26;80.49
76195;BME280;64964;48.694;21.206;2023-04-25T03:07:01;96715.50;;;12.25;80.64
76195;BME280;64964;48.694;21.206;2023-04-25T03:09:26;96718.94;;;12.26;80.60
76195;BME280;64964;48.694;21.206;2023-04-25T03:11:52;96711.00;;;12.26;80.52
76195;BME280;64964;48.694;21.206;2023-04-25T03:14:17;96715.28;;;12.27;80.56
76195;BME280;64964;48.694;21.206;2023-04-25T03:16:42;96716.06;;;12.27;80.46
76195;BME280;64964;48.694;21.206;2023-04-25T03:19:08;96710.19;;;12.25;80.64
76195;BME280;64964;48.694;21.206;2023-04-25T03:21:34;96715.28;;;12.27;80.52
76195;BME280;64964;48.694;21.206;2023-04-25T03:24:02;96715.28;;;12.27;80.52
76195;BME280;64964;48.694;21.206;2023-04-25T03:26:28;96710.19;;;12.25;80.74
76195;BME280;64964;48.694;21.206;2023-04-25T03:28:53;96709.56;;;12.23;80.37
76195;BME280;64964;48.694;21.206;2023-04-25T03:31:19;96710.22;;;12.18;80.77
76195;BME280;64964;48.694;21.206;2023-04-25T03:33:44;96717.56;;;12.16;80.72
76195;BME280;64964;48.694;21.206;2023-04-25T03:36:10;96713.09;;;12.17;80.69
76195;BME280;64964;48.694;21.206;2023-04-25T03:38:35;96715.13;;;12.15;80.62
76195;BME280;64964;48.694;21.206;2023-04-25T03:41:01;96709.66;;;12.10;80.98
76195;BME280;64964;48.694;21.206;2023-04-25T03:43:26;96715.34;;;12.13;80.51
76195;BME280;64964;48.694;21.206;2023-04-25T03:45:52;96711.25;;;12.11;80.71
76195;BME280;64964;48.694;21.206;2023-04-25T03:48:17;96712.28;;;12.10;80.89
76195;BME280;64964;48.694;21.206;2023-04-25T03:50:42;96710.22;;;12.12;80.62
76195;BME280;64964;48.694;21.206;2023-04-25T03:53:08;96702.28;;;12.12;80.75
76195;BME280;64964;48.694;21.206;2023-04-25T03:55:33;96703.31;;;12.11;80.92
76195;BME280;64964;48.694;21.206;2023-04-25T03:57:58;96710.88;;;12.07;81.32
76195;BME280;64964;48.694;21.206;2023-04-25T04:00:24;96713.31;;;12.09;80.83
76195;BME280;64964;48.694;21.206;2023-04-25T04:02:50;96708.03;;;12.09;80.84
76195;BME280;64964;48.694;21.206;2023-04-25T04:05:15;96710.66;;;12.09;80.84
76195;BME280;64964;48.694;21.206;2023-04-25T04:07:41;96711.91;;;12.06;80.89
76195;BME280;64964;48.694;21.206;2023-04-25T04:10:08;96720.25;;;12.03;80.93
76195;BME280;64964;48.694;21.206;2023-04-25T04:12:34;96713.97;;;12.04;80.87
76195;BME280;64964;48.694;21.206;2023-04-25T04:14:59;96717.00;;;12.01;80.93
76195;BME280;64964;48.694;21.206;2023-04-25T04:17:24;96718.84;;;12.01;81.08
76195;BME280;64964;48.694;21.206;2023-04-25T04:19:50;96712.13;;;11.98;81.18
76195;BME280;64964;48.694;21.206;2023-04-25T04:22:16;96723.97;;;11.95;80.92
76195;BME280;64964;48.694;21.206;2023-04-25T04:24:41;96727.44;;;11.89;81.57
76195;BME280;64964;48.694;21.206;2023-04-25T04:27:09;96725.81;;;11.88;81.46
76195;BME280;64964;48.694;21.206;2023-04-25T04:29:34;96734.34;;;11.90;81.10
76195;BME280;64964;48.694;21.206;2023-04-25T04:32:02;96718.47;;;11.90;81.14
76195;BME280;64964;48.694;21.206;2023-04-25T04:34:28;96725.19;;;11.93;81.14
76195;BME280;64964;48.694;21.206;2023-04-25T04:36:54;96721.53;;;11.94;80.85
76195;BME280;64964;48.694;21.206;2023-04-25T04:39:20;96722.13;;;11.96;80.87
76195;BME280;64964;48.694;21.206;2023-04-25T04:41:45;96723.97;;;11.95;80.74
76195;BME280;64964;48.694;21.206;2023-04-25T04:44:11;96730.28;;;11.94;80.80
76195;BME280;64964;48.694;21.206;2023-04-25T04:46:37;96727.22;;;11.91;81.08
76195;BME280;64964;48.694;21.206;2023-04-25T04:49:05;96729.47;;;11.94;80.78
76195;BME280;64964;48.694;21.206;2023-04-25T04:51:31;96737.63;;;11.92;80.55
76195;BME280;64964;48.694;21.206;2023-04-25T04:53:57;96737.63;;;11.92;80.82
76195;BME280;64964;48.694;21.206;2023-04-25T04:56:24;96738.44;;;11.93;80.77
76195;BME280;64964;48.694;21.206;2023-04-25T04:58:50;96732.56;;;11.84;81.65
76195;BME280;64964;48.694;21.206;2023-04-25T05:01:16;96733.16;;;11.86;80.63
76195;BME280;64964;48.694;21.206;2023-04-25T05:03:41;96728.88;;;11.85;80.39
76195;BME280;64964;48.694;21.206;2023-04-25T05:06:06;96730.72;;;11.85;80.52
76195;BME280;64964;48.694;21.206;2023-04-25T05:08:32;96732.56;;;11.84;80.53
76195;BME280;64964;48.694;21.206;2023-04-25T05:10:57;96730.72;;;11.85;80.16
76195;BME280;64964;48.694;21.206;2023-04-25T05:13:22;96731.75;;;11.84;80.41
76195;BME280;64964;48.694;21.206;2023-04-25T05:15:48;96728.06;;;11.85;80.45
76195;BME280;64964;48.694;21.206;2023-04-25T05:18:13;96726.22;;;11.85;80.48
76195;BME280;64964;48.694;21.206;2023-04-25T05:20:38;96723.81;;;11.84;80.22
76195;BME280;64964;48.694;21.206;2023-04-25T05:23:04;96726.22;;;11.85;80.24
76195;BME280;64964;48.694;21.206;2023-04-25T05:25:29;96732.97;;;11.88;80.26
76195;BME280;64964;48.694;21.206;2023-04-25T05:27:55;96730.31;;;11.88;80.22
76195;BME280;64964;48.694;21.206;2023-04-25T05:30:21;96730.91;;;11.90;80.21
76195;BME280;64964;48.694;21.206;2023-04-25T05:32:47;96732.53;;;11.91;79.50
76195;BME280;64964;48.694;21.206;2023-04-25T05:35:12;96737.00;;;11.90;79.77
76195;BME280;64964;48.694;21.206;2023-04-25T05:37:37;96736.81;;;11.92;79.66
76195;BME280;64964;48.694;21.206;2023-04-25T05:40:03;96734.16;;;11.92;79.73
76195;BME280;64964;48.694;21.206;2023-04-25T05:42:32;96737.41;;;11.94;80.07
76195;BME280;64964;48.694;21.206;2023-04-25T05:44:57;96740.69;;;11.96;79.89
76195;BME280;64964;48.694;21.206;2023-04-25T05:47:23;96737.00;;;11.97;79.81
76195;BME280;64964;48.694;21.206;2023-04-25T05:49:48;96740.25;;;11.99;79.71
76195;BME280;64964;48.694;21.206;2023-04-25T05:52:13;96745.34;;;12.01;79.44
76195;BME280;64964;48.694;21.206;2023-04-25T05:54:40;96736.38;;;12.02;79.63
76195;BME280;64964;48.694;21.206;2023-04-25T05:57:06;96737.19;;;12.02;79.40
76195;BME280;64964;48.694;21.206;2023-04-25T05:59:31;96744.72;;;12.05;79.29
76195;BME280;64964;48.694;21.206;2023-04-25T06:01:56;96740.44;;;12.04;79.19
76195;BME280;64964;48.694;21.206;2023-04-25T06:04:22;96745.75;;;12.04;79.30
76195;BME280;64964;48.694;21.206;2023-04-25T06:06:47;96748.16;;;12.06;78.99
76195;BME280;64964;48.694;21.206;2023-04-25T06:09:12;96746.34;;;12.06;79.14
76195;BME280;64964;48.694;21.206;2023-04-25T06:11:38;96742.88;;;12.06;79.09
76195;BME280;64964;48.694;21.206;2023-04-25T06:14:03;96736.38;;;12.02;79.64
76195;BME280;64964;48.694;21.206;2023-04-25T06:16:28;96736.59;;;12.00;79.01
76195;BME280;64964;48.694;21.206;2023-04-25T06:18:54;96743.91;;;11.98;79.09
76195;BME280;64964;48.694;21.206;2023-04-25T06:21:19;96740.06;;;11.94;78.90
76195;BME280;64964;48.694;21.206;2023-04-25T06:23:45;96745.34;;;11.94;78.80
76195;BME280;64964;48.694;21.206;2023-04-25T06:26:10;96742.31;;;11.90;78.61
76195;BME280;64964;48.694;21.206;2023-04-25T06:28:35;96739.84;;;11.82;78.61
76195;BME280;64964;48.694;21.206;2023-04-25T06:31:01;96741.28;;;11.78;78.47
76195;BME280;64964;48.694;21.206;2023-04-25T06:33:26;96744.16;;;11.70;78.28
76195;BME280;64964;48.694;21.206;2023-04-25T06:35:51;96741.94;;;11.60;78.41
76195;BME280;64964;48.694;21.206;2023-04-25T06:38:17;96752.34;;;11.55;78.60
76195;BME280;64964;48.694;21.206;2023-04-25T06:40:43;96745.03;;;11.51;78.59
76195;BME280;64964;48.694;21.206;2023-04-25T06:43:08;96746.47;;;11.46;78.45
76195;BME280;64964;48.694;21.206;2023-04-25T06:45:33;96748.69;;;11.43;78.45
76195;BME280;64964;48.694;21.206;2023-04-25T06:47:59;96743.41;;;11.36;78.06
76195;BME280;64964;48.694;21.206;2023-04-25T06:50:24;96744.44;;;11.29;77.88
76195;BME280;64964;48.694;21.206;2023-04-25T06:52:50;96748.50;;;11.18;77.12
76195;BME280;64964;48.694;21.206;2023-04-25T06:55:15;96738.72;;;11.12;77.89
76195;BME280;64964;48.694;21.206;2023-04-25T06:57:41;96741.38;;;11.05;77.72
76195;BME280;64964;48.694;21.206;2023-04-25T07:00:06;96739.53;;;10.99;77.71
76195;BME280;64964;48.694;21.206;2023-04-25T07:02:34;96743.41;;;10.90;77.92
76195;BME280;64964;48.694;21.206;2023-04-25T07:05:00;96743.84;;;10.87;78.64
76195;BME280;64964;48.694;21.206;2023-04-25T07:07:26;96746.06;;;10.83;78.53
76195;BME280;64964;48.694;21.206;2023-04-25T07:09:51;96737.72;;;10.80;78.66
76195;BME280;64964;48.694;21.206;2023-04-25T07:12:17;96747.47;;;10.79;78.48
76195;BME280;64964;48.694;21.206;2023-04-25T07:14:42;96747.66;;;10.78;78.96
76195;BME280;64964;48.694;21.206;2023-04-25T07:17:07;96747.44;;;10.72;79.20
76195;BME280;64964;48.694;21.206;2023-04-25T07:19:33;96748.47;;;10.71;78.15
76195;BME280;64964;48.694;21.206;2023-04-25T07:21:58;96744.81;;;10.66;77.83
76195;BME280;64964;48.694;21.206;2023-04-25T07:24:24;96747.03;;;10.56;78.37
76195;BME280;64964;48.694;21.206;2023-04-25T07:26:49;96747.41;;;10.53;77.84
76195;BME280;64964;48.694;21.206;2023-04-25T07:29:15;96749.03;;;10.47;78.36
76195;BME280;64964;48.694;21.206;2023-04-25T07:31:40;96747.81;;;10.43;78.75
76195;BME280;64964;48.694;21.206;2023-04-25T07:34:05;96744.56;;;10.41;78.84
76195;BME280;64964;48.694;21.206;2023-04-25T07:36:31;96742.50;;;10.43;78.79
76195;BME280;64964;48.694;21.206;2023-04-25T07:38:56;96742.09;;;10.39;79.00
76195;BME280;64964;48.694;21.206;2023-04-25T07:41:22;96738.66;;;10.39;79.37
76195;BME280;64964;48.694;21.206;2023-04-25T07:43:47;96735.19;;;10.38;78.88
76195;BME280;64964;48.694;21.206;2023-04-25T07:46:12;96751.47;;;10.42;78.97
76195;BME280;64964;48.694;21.206;2023-04-25T07:48:38;96743.53;;;10.42;78.91
76195;BME280;64964;48.694;21.206;2023-04-25T07:51:03;96733.38;;;10.45;79.15
76195;BME280;64964;48.694;21.206;2023-04-25T07:53:30;96736.84;;;10.46;79.07
76195;BME280;64964;48.694;21.206;2023-04-25T07:55:57;96744.34;;;10.49;78.69
76195;BME280;64964;48.694;21.206;2023-04-25T07:58:22;96743.16;;;10.45;79.55
76195;BME280;64964;48.694;21.206;2023-04-25T08:00:48;96748.63;;;10.50;78.62
76195;BME280;64964;48.694;21.206;2023-04-25T08:03:13;96744.59;;;10.54;78.85
76195;BME280;64964;48.694;21.206;2023-04-25T08:05:38;96736.66;;;10.61;78.88
76195;BME280;64964;48.694;21.206;2023-04-25T08:08:04;96739.09;;;10.69;79.13
76195;BME280;64964;48.694;21.206;2023-04-25T08:10:32;96742.38;;;10.78;78.58
76195;BME280;64964;48.694;21.206;2023-04-25T08:12:58;96742.78;;;10.81;78.57
76195;BME280;64964;48.694;21.206;2023-04-25T08:15:24;96741.19;;;10.87;78.61
76195;BME280;64964;48.694;21.206;2023-04-25T08:17:50;96742.78;;;10.94;78.33
76195;BME280;64964;48.694;21.206;2023-04-25T08:20:16;96741.59;;;10.97;78.45
76195;BME280;64964;48.694;21.206;2023-04-25T08:22:42;96744.44;;;10.95;78.88
76195;BME280;64964;48.694;21.206;2023-04-25T08:25:07;96749.31;;;11.05;78.35
76195;BME280;64964;48.694;21.206;2023-04-25T08:27:33;96757.66;;;11.09;76.56
76195;BME280;64964;48.694;21.206;2023-04-25T08:29:58;96756.25;;;11.00;76.88
76195;BME280;64964;48.694;21.206;2023-04-25T08:32:23;96762.97;;;10.95;77.33
76195;BME280;64964;48.694;21.206;2023-04-25T08:34:49;96768.25;;;10.95;76.88
76195;BME280;64964;48.694;21.206;2023-04-25T08:37:16;96770.88;;;10.95;77.28
76195;BME280;64964;48.694;21.206;2023-04-25T08:39:41;96778.81;;;10.95;76.72
76195;BME280;64964;48.694;21.206;2023-04-25T08:42:07;96780.41;;;10.90;75.38
76195;BME280;64964;48.694;21.206;2023-04-25T08:44:34;96779.41;;;10.84;75.99
76195;BME280;64964;48.694;21.206;2023-04-25T08:47:02;96774.72;;;10.80;75.72
76195;BME280;64964;48.694;21.206;2023-04-25T08:49:29;96783.06;;;10.77;76.57
76195;BME280;64964;48.694;21.206;2023-04-25T08:51:56;96785.47;;;10.78;76.49
76195;BME280;64964;48.694;21.206;2023-04-25T08:54:26;96791.41;;;10.80;76.91
76195;BME280;64964;48.694;21.206;2023-04-25T08:56:54;96789.16;;;10.77;75.91
76195;BME280;64964;48.694;21.206;2023-04-25T08:59:21;96794.25;;;10.79;76.52
76195;BME280;64964;48.694;21.206;2023-04-25T09:01:49;96789.78;;;10.79;75.82
76195;BME280;64964;48.694;21.206;2023-04-25T09:04:14;96803.97;;;10.78;76.17
76195;BME280;64964;48.694;21.206;2023-04-25T09:06:40;96801.13;;;10.73;75.50
76195;BME280;64964;48.694;21.206;2023-04-25T09:09:06;96802.75;;;10.74;75.69
76195;BME280;64964;48.694;21.206;2023-04-25T09:11:33;96800.09;;;10.61;75.94
76195;BME280;64964;48.694;21.206;2023-04-25T09:14:20;96806.78;;;10.57;75.50
76195;BME280;64964;48.694;21.206;2023-04-25T09:19:23;96799.28;;;10.54;76.10
76195;BME280;64964;48.694;21.206;2023-04-25T09:21:49;96796.41;;;10.55;76.24
76195;BME280;64964;48.694;21.206;2023-04-25T09:24:15;96790.50;;;10.53;74.62
76195;BME280;64964;48.694;21.206;2023-04-25T09:26:40;96798.44;;;10.53;75.33
76195;BME280;64964;48.694;21.206;2023-04-25T09:29:07;96804.34;;;10.55;76.14
76195;BME280;64964;48.694;21.206;2023-04-25T09:31:33;96796.25;;;10.63;75.70
76195;BME280;64964;48.694;21.206;2023-04-25T09:34:01;96795.03;;;10.66;75.80
76195;BME280;64964;48.694;21.206;2023-04-25T09:36:27;96799.31;;;10.73;75.60
76195;BME280;64964;48.694;21.206;2023-04-25T09:38:53;96790.59;;;10.80;76.01
76195;BME280;64964;48.694;21.206;2023-04-25T09:41:23;96795.28;;;10.84;75.55
76195;BME280;64964;48.694;21.206;2023-04-25T09:43:49;96794.88;;;10.87;76.14
76195;BME280;64964;48.694;21.206;2023-04-25T09:46:15;96797.34;;;10.95;75.49
76195;BME280;64964;48.694;21.206;2023-04-25T09:48:47;96791.81;;;10.90;75.40
76195;BME280;64964;48.694;21.206;2023-04-25T09:51:13;96798.53;;;10.93;75.46
76195;BME280;64964;48.694;21.206;2023-04-25T09:53:43;96798.56;;;11.00;75.24
76195;BME280;64964;48.694;21.206;2023-04-25T09:56:11;96805.88;;;11.04;75.86
76195;BME280;64964;48.694;21.206;2023-04-25T09:58:38;96803.63;;;11.01;74.78
76195;BME280;64964;48.694;21.206;2023-04-25T10:01:06;96794.25;;;10.98;74.77
76195;BME280;64964;48.694;21.206;2023-04-25T10:03:33;96798.31;;;10.94;74.92
76195;BME280;64964;48.694;21.206;2023-04-25T10:06:01;96800.16;;;10.87;73.27
76195;BME280;64964;48.694;21.206;2023-04-25T10:08:35;96809.09;;;10.86;73.96
76195;BME280;64964;48.694;21.206;2023-04-25T10:11:03;96807.66;;;10.77;75.00
76195;BME280;64964;48.694;21.206;2023-04-25T10:13:32;96808.03;;;10.74;75.17
76195;BME280;64964;48.694;21.206;2023-04-25T10:15:59;96811.31;;;10.76;75.32
76195;BME280;64964;48.694;21.206;2023-04-25T10:18:26;96813.16;;;10.76;75.00
76195;BME280;64964;48.694;21.206;2023-04-25T10:20:57;96819.84;;;10.78;74.95
76195;BME280;64964;48.694;21.206;2023-04-25T10:23:24;96810.13;;;10.79;75.18
76195;BME280;64964;48.694;21.206;2023-04-25T10:25:53;96822.09;;;10.75;75.09
76195;BME280;64964;48.694;21.206;2023-04-25T10:28:20;96824.94;;;10.73;75.42
76195;BME280;64964;48.694;21.206;2023-04-25T10:31:01;96829.19;;;10.67;74.37
76195;BME280;64964;48.694;21.206;2023-04-25T10:33:38;96824.72;;;10.68;74.78
76195;BME280;64964;48.694;21.206;2023-04-25T10:36:14;96815.94;;;10.61;74.80
76195;BME280;64964;48.694;21.206;2023-04-25T10:38:42;96814.75;;;10.63;74.78
76195;BME280;64964;48.694;21.206;2023-04-25T10:41:09;96806.19;;;10.55;74.75
76195;BME280;64964;48.694;21.206;2023-04-25T10:43:46;96812.44;;;10.47;74.93
76195;BME280;64964;48.694;21.206;2023-04-25T10:46:27;96819.94;;;10.43;75.52
76195;BME280;64964;48.694;21.206;2023-04-25T10:48:57;96807.75;;;10.42;75.27
76195;BME280;64964;48.694;21.206;2023-04-25T10:51:27;96816.50;;;10.43;75.63
76195;BME280;64964;48.694;21.206;2023-04-25T10:54:04;96805.94;;;10.43;75.21
76195;BME280;64964;48.694;21.206;2023-04-25T10:56:38;96811.84;;;10.45;74.59
76195;BME280;64964;48.694;21.206;2023-04-25T10:59:11;96810.59;;;10.41;75.40
76195;BME280;64964;48.694;21.206;2023-04-25T11:04:03;96812.84;;;10.44;75.22
76195;BME280;64964;48.694;21.206;2023-04-25T11:06:35;96807.75;;;10.42;75.55
76195;BME280;64964;48.694;21.206;2023-04-25T11:09:03;96812.03;;;10.43;76.06
76195;BME280;64964;48.694;21.206;2023-04-25T11:11:36;96814.88;;;10.42;74.83
76195;BME280;64964;48.694;21.206;2023-04-25T11:14:01;96818.13;;;10.44;75.58
76195;BME280;64964;48.694;21.206;2023-04-25T11:16:27;96816.72;;;10.48;75.67
76195;BME280;64964;48.694;21.206;2023-04-25T11:18:52;96820.00;;;10.50;76.24
76195;BME280;64964;48.694;21.206;2023-04-25T11:21:17;96826.94;;;10.58;76.12
76195;BME280;64964;48.694;21.206;2023-04-25T11:23:46;96828.34;;;10.60;76.05
76195;BME280;64964;48.694;21.206;2023-04-25T11:26:13;96816.97;;;10.60;75.54
76195;BME280;64964;48.694;21.206;2023-04-25T11:28:39;96821.88;;;10.69;75.09
76195;BME280;64964;48.694;21.206;2023-04-25T11:31:04;96825.13;;;10.71;75.25
76195;BME280;64964;48.694;21.206;2023-04-25T11:33:30;96832.03;;;10.72;75.48
76195;BME280;64964;48.694;21.206;2023-04-25T11:35:55;96833.28;;;10.77;75.37
76195;BME280;64964;48.694;21.206;2023-04-25T11:38:25;96837.97;;;10.81;75.25
76195;BME280;64964;48.694;21.206;2023-04-25T11:40:54;96841.66;;;10.87;74.44
76195;BME280;64964;48.694;21.206;2023-04-25T11:43:21;96843.06;;;10.83;74.12
76195;BME280;64964;48.694;21.206;2023-04-25T11:45:48;96839.19;;;10.79;74.01
76195;BME280;64964;48.694;21.206;2023-04-25T11:48:14;96838.19;;;10.80;73.43
76195;BME280;64964;48.694;21.206;2023-04-25T11:50:39;96831.22;;;10.72;73.89
76195;BME280;64964;48.694;21.206;2023-04-25T11:53:05;96838.53;;;10.70;73.51
76195;BME280;64964;48.694;21.206;2023-04-25T11:55:31;96834.06;;;10.64;74.54
76195;BME280;64964;48.694;21.206;2023-04-25T11:57:59;96838.13;;;10.66;73.99
76195;BME280;64964;48.694;21.206;2023-04-25T12:00:25;96827.97;;;10.70;74.11
76195;BME280;64964;48.694;21.206;2023-04-25T12:02:53;96833.88;;;10.72;74.56
76195;BME280;64964;48.694;21.206;2023-04-25T12:05:19;96828.59;;;10.72;73.84
76195;BME280;64964;48.694;21.206;2023-04-25T12:07:46;96830.38;;;10.65;73.71
76195;BME280;64964;48.694;21.206;2023-04-25T12:10:13;96823.28;;;10.65;73.56
76195;BME280;64964;48.694;21.206;2023-04-25T12:12:43;96824.94;;;10.66;73.98
76195;BME280;64964;48.694;21.206;2023-04-25T12:15:16;96825.31;;;10.63;74.03
76195;BME280;64964;48.694;21.206;2023-04-25T12:17:49;96826.34;;;10.69;74.14
76195;BME280;64964;48.694;21.206;2023-04-25T12:20:17;96828.59;;;10.72;74.21
76195;BME280;64964;48.694;21.206;2023-04-25T12:22:44;96827.78;;;10.78;73.91
76195;BME280;64964;48.694;21.206;2023-04-25T12:25:11;96831.25;;;10.79;73.43
76195;BME280;64964;48.694;21.206;2023-04-25T12:27:38;96825.97;;;10.79;73.57
76195;BME280;64964;48.694;21.206;2023-04-25T12:30:07;96833.50;;;10.82;73.87
76195;BME280;64964;48.694;21.206;2023-04-25T12:32:33;96825.78;;;10.80;73.46
76195;BME280;64964;48.694;21.206;2023-04-25T12:34:58;96822.09;;;10.75;73.55
76195;BME280;64964;48.694;21.206;2023-04-25T12:37:24;96823.09;;;10.73;73.02
76195;BME280;64964;48.694;21.206;2023-04-25T12:39:49;96825.31;;;10.70;73.14
76195;BME280;64964;48.694;21.206;2023-04-25T12:42:14;96828.16;;;10.68;73.26
76195;BME280;64964;48.694;21.206;2023-04-25T12:44:40;96819.44;;;10.68;73.60
76195;BME280;64964;48.694;21.206;2023-04-25T12:47:06;96819.22;;;10.69;73.43
76195;BME280;64964;48.694;21.206;2023-04-25T12:49:32;96823.09;;;10.67;72.69
76195;BME280;64964;48.694;21.206;2023-04-25T12:51:57;96816.78;;;10.68;73.38